Landfall Village, Minnesota
Current Conditions -  °F | °C
As of 10:10 PM on Tuesday 21 Oct 2014 (Local Time) from K21D Reporting Station
Clear Clear  
Wind Chill: 41°   Ceiling: Unl
Heat Index: 45°   Visibility: 10mi
Dew Point: 37°   Wind: 7mph
Humidity: 76%   Direction: 140°SE
Pressure: 30.19"   Gusts: NA
Location:  44.9915°N, 92.9659°W
Report Text: K21D 220310Z AUTO 14006KT 10SM CLR 07/03 A3019 RMK AO2
Loading
Personal Weather Stations






























Interactive Weather Map
Tropical Storm Tracking
New forecast layout! Learn more

10-Day Weather Forecast

Advertisements
Track Severe Weather on mobile